Boyle, Mississippi
Current Conditions -  °F | °C
As of 7:15 AM on Thursday 23 Oct 2014 (Local Time) from KRNV Reporting Station
Clear Clear  
Wind Chill: 45°   Ceiling: Unl
Heat Index: 45°   Visibility: 10mi
Dew Point: 45°   Wind: 3mph
Humidity: 99%   Direction: 40°NE
Pressure: 30.18"   Gusts: NA
Location:  33.7°N, 90.73°W
Report Text: KRNV 231215Z AUTO 04003KT 10SM CLR 07/07 A3018 RMK AO2 T00710070
Loading
Personal Weather Stations






























Interactive Weather Map
Tropical Storm Tracking
New forecast layout! Learn more

10-Day Weather Forecast

Advertisements
Track Severe Weather on mobile